UAL1754 KSFO-KLAX
Flight info
| Callsign | UAL1754 |
|---|---|
| Flight time | 0h 53m |
| Altitude | 37000 |
| Route | WESLA5 SUSEY EBAYE BURGL IRNMN2 |
| Aircraft | B789/H-SDE1E2E3FGHIJ2J3J4J5M1RWXY/LB1D1 |
Departure
| Time | 2026-04-22 00:44 |
|---|---|
| Airport | San Francisco International Airport (KSFO) |
Arrival
| Time | 2026-04-22 01:38 |
|---|---|
| Airport | Los Angeles International Airport (KLAX) |
| Time | Latitude | Longitude | Altitude | Speed | Heading |
|---|---|---|---|---|---|
| 2026-04-22 00:05 | 37.62138 | -122.38923 | 27 ft | 0 kts | 208° |
| 2026-04-22 00:05 | 37.62139 | -122.38923 | 27 ft | 0 kts | 208° |
| 2026-04-22 00:16 | 37.62140 | -122.38923 | 27 ft | 0 kts | 208° |
| 2026-04-22 00:16 | 37.62140 | -122.38922 | 27 ft | 0 kts | 208° |
| 2026-04-22 00:25 | 37.62141 | -122.38922 | 27 ft | 0 kts | 208° |
| 2026-04-22 00:31 | 37.62141 | -122.38921 | 27 ft | 0 kts | 208° |
| 2026-04-22 00:34 | 37.62162 | -122.38907 | 25 ft | 4 kts | 207° |
| 2026-04-22 00:34 | 37.62187 | -122.38892 | 26 ft | 4 kts | 208° |
| 2026-04-22 00:35 | 37.62210 | -122.38877 | 27 ft | 4 kts | 194° |
| 2026-04-22 00:35 | 37.62236 | -122.38875 | 26 ft | 4 kts | 158° |
| 2026-04-22 00:35 | 37.62255 | -122.38893 | 27 ft | 2 kts | 118° |
| 2026-04-22 00:35 | 37.62256 | -122.38896 | 27 ft | 0 kts | 117° |
| 2026-04-22 00:39 | 37.62245 | -122.38868 | 27 ft | 7 kts | 117° |
| 2026-04-22 00:39 | 37.62213 | -122.38791 | 27 ft | 13 kts | 118° |
| 2026-04-22 00:39 | 37.62162 | -122.38670 | 27 ft | 17 kts | 118° |
| 2026-04-22 00:39 | 37.62103 | -122.38531 | 27 ft | 19 kts | 118° |
| 2026-04-22 00:40 | 37.62040 | -122.38380 | 27 ft | 20 kts | 118° |
| 2026-04-22 00:40 | 37.61972 | -122.38218 | 27 ft | 22 kts | 118° |
| 2026-04-22 00:40 | 37.61900 | -122.38045 | 27 ft | 23 kts | 118° |
| 2026-04-22 00:40 | 37.61827 | -122.37860 | 27 ft | 24 kts | 112° |
| 2026-04-22 00:41 | 37.61764 | -122.37658 | 27 ft | 25 kts | 111° |
| 2026-04-22 00:41 | 37.61692 | -122.37448 | 26 ft | 27 kts | 117° |
| 2026-04-22 00:41 | 37.61605 | -122.37239 | 27 ft | 28 kts | 119° |
| 2026-04-22 00:41 | 37.61514 | -122.37020 | 27 ft | 28 kts | 117° |
| 2026-04-22 00:42 | 37.61392 | -122.36821 | 27 ft | 29 kts | 131° |
| 2026-04-22 00:42 | 37.61290 | -122.36599 | 27 ft | 30 kts | 118° |
| 2026-04-22 00:42 | 37.61192 | -122.36366 | 27 ft | 31 kts | 118° |
| 2026-04-22 00:42 | 37.61091 | -122.36129 | 27 ft | 28 kts | 118° |
| 2026-04-22 00:43 | 37.61052 | -122.35979 | 27 ft | 13 kts | 82° |
| 2026-04-22 00:43 | 37.61108 | -122.35897 | 27 ft | 13 kts | 27° |
| 2026-04-22 00:43 | 37.61184 | -122.35873 | 27 ft | 6 kts | 332° |
| 2026-04-22 00:43 | 37.61194 | -122.35893 | 27 ft | 5 kts | 297° |
| 2026-04-22 00:44 | 37.61280 | -122.36100 | 28 ft | 57 kts | 298° |
| 2026-04-22 00:44 | 37.61568 | -122.36787 | 28 ft | 119 kts | 298° |
| 2026-04-22 00:44 | 37.62039 | -122.37899 | 197 ft | 159 kts | 303° |
| 2026-04-22 00:44 | 37.62592 | -122.39097 | 1197 ft | 161 kts | 298° |
| 2026-04-22 00:45 | 37.63099 | -122.40397 | 1940 ft | 169 kts | 292° |
| 2026-04-22 00:45 | 37.63676 | -122.41779 | 2525 ft | 188 kts | 295° |
| 2026-04-22 00:45 | 37.64358 | -122.43325 | 2877 ft | 215 kts | 296° |
| 2026-04-22 00:45 | 37.65098 | -122.44992 | 2954 ft | 230 kts | 297° |
| 2026-04-22 00:46 | 37.65934 | -122.46891 | 3350 ft | 250 kts | 296° |
| 2026-04-22 00:46 | 37.66735 | -122.48801 | 4664 ft | 241 kts | 292° |
| 2026-04-22 00:46 | 37.66983 | -122.50879 | 5526 ft | 248 kts | 267° |
| 2026-04-22 00:46 | 37.66551 | -122.53027 | 6463 ft | 253 kts | 244° |
| 2026-04-22 00:47 | 37.65490 | -122.54772 | 7324 ft | 260 kts | 222° |
| 2026-04-22 00:47 | 37.63886 | -122.55852 | 8269 ft | 266 kts | 200° |
| 2026-04-22 00:47 | 37.62018 | -122.55991 | 9193 ft | 275 kts | 175° |
| 2026-04-22 00:47 | 37.60220 | -122.55073 | 10064 ft | 287 kts | 149° |
| 2026-04-22 00:48 | 37.58726 | -122.53316 | 10687 ft | 302 kts | 137° |
| 2026-04-22 00:48 | 37.57259 | -122.51328 | 11202 ft | 317 kts | 136° |
| 2026-04-22 00:48 | 37.55716 | -122.49255 | 11715 ft | 332 kts | 137° |
| 2026-04-22 00:48 | 37.54066 | -122.47129 | 12200 ft | 346 kts | 138° |
| 2026-04-22 00:49 | 37.52348 | -122.44931 | 12737 ft | 357 kts | 137° |
| 2026-04-22 00:49 | 37.50643 | -122.42713 | 13469 ft | 361 kts | 137° |
| 2026-04-22 00:49 | 37.48851 | -122.40372 | 14209 ft | 365 kts | 137° |
| 2026-04-22 00:49 | 37.47069 | -122.38062 | 14861 ft | 369 kts | 137° |
| 2026-04-22 00:50 | 37.45265 | -122.35733 | 15464 ft | 374 kts | 137° |
| 2026-04-22 00:50 | 37.43443 | -122.33378 | 16097 ft | 377 kts | 137° |
| 2026-04-22 00:50 | 37.41621 | -122.31019 | 16700 ft | 381 kts | 137° |
| 2026-04-22 00:50 | 37.39766 | -122.28619 | 17249 ft | 385 kts | 137° |
| 2026-04-22 00:51 | 37.37886 | -122.26192 | 17836 ft | 389 kts | 137° |
| 2026-04-22 00:51 | 37.35985 | -122.23742 | 18405 ft | 392 kts | 137° |
| 2026-04-22 00:51 | 37.34108 | -122.21324 | 18811 ft | 398 kts | 138° |
| 2026-04-22 00:51 | 37.32166 | -122.18821 | 19214 ft | 403 kts | 138° |
| 2026-04-22 00:52 | 37.30196 | -122.16285 | 19627 ft | 408 kts | 138° |
| 2026-04-22 00:52 | 37.28197 | -122.13716 | 19979 ft | 414 kts | 138° |
| 2026-04-22 00:52 | 37.26176 | -122.11118 | 20379 ft | 419 kts | 139° |
| 2026-04-22 00:52 | 37.24119 | -122.08477 | 20784 ft | 424 kts | 139° |
| 2026-04-22 00:53 | 37.22045 | -122.05819 | 21104 ft | 430 kts | 139° |
| 2026-04-22 00:53 | 37.19964 | -122.03152 | 21471 ft | 435 kts | 139° |
| 2026-04-22 00:53 | 37.17811 | -122.00391 | 21786 ft | 440 kts | 139° |
| 2026-04-22 00:53 | 37.15657 | -121.97635 | 22124 ft | 445 kts | 140° |
| 2026-04-22 00:54 | 37.13503 | -121.94884 | 22449 ft | 450 kts | 140° |
| 2026-04-22 00:54 | 37.11267 | -121.92027 | 22792 ft | 455 kts | 140° |
| 2026-04-22 00:54 | 37.09035 | -121.89178 | 23131 ft | 460 kts | 141° |
| 2026-04-22 00:54 | 37.06808 | -121.86338 | 23469 ft | 466 kts | 141° |
| 2026-04-22 00:55 | 37.04523 | -121.83428 | 23747 ft | 471 kts | 141° |
| 2026-04-22 00:55 | 37.02213 | -121.80487 | 24021 ft | 476 kts | 141° |
| 2026-04-22 00:55 | 36.97535 | -121.74540 | 24584 ft | 483 kts | 141° |
| 2026-04-22 00:56 | 36.95167 | -121.71536 | 24873 ft | 486 kts | 141° |
| 2026-04-22 00:56 | 36.92786 | -121.68517 | 25155 ft | 490 kts | 142° |
| 2026-04-22 00:56 | 36.90389 | -121.65478 | 25432 ft | 493 kts | 142° |
| 2026-04-22 00:56 | 36.87967 | -121.62414 | 25716 ft | 496 kts | 142° |
| 2026-04-22 00:57 | 36.85537 | -121.59342 | 26016 ft | 499 kts | 142° |
| 2026-04-22 00:57 | 36.83083 | -121.56242 | 26289 ft | 502 kts | 142° |
| 2026-04-22 00:57 | 36.80621 | -121.53135 | 26561 ft | 505 kts | 142° |
| 2026-04-22 00:57 | 36.78142 | -121.50009 | 26850 ft | 507 kts | 142° |
| 2026-04-22 00:58 | 36.75649 | -121.46867 | 27149 ft | 510 kts | 143° |
| 2026-04-22 00:58 | 36.73144 | -121.43717 | 27431 ft | 514 kts | 143° |
| 2026-04-22 00:58 | 36.70618 | -121.40545 | 27703 ft | 517 kts | 143° |
| 2026-04-22 00:58 | 36.68083 | -121.37360 | 28017 ft | 518 kts | 143° |
| 2026-04-22 00:59 | 36.65568 | -121.34201 | 28336 ft | 521 kts | 143° |
| 2026-04-22 00:59 | 36.63012 | -121.30999 | 28640 ft | 524 kts | 143° |
| 2026-04-22 00:59 | 36.60431 | -121.27771 | 28956 ft | 527 kts | 143° |
| 2026-04-22 00:59 | 36.57841 | -121.24531 | 29252 ft | 529 kts | 143° |
| 2026-04-22 01:00 | 36.55234 | -121.21271 | 29572 ft | 532 kts | 143° |
| 2026-04-22 01:00 | 36.52623 | -121.18012 | 29911 ft | 534 kts | 143° |
| 2026-04-22 01:00 | 36.49992 | -121.14732 | 30214 ft | 536 kts | 143° |
| 2026-04-22 01:00 | 36.47357 | -121.11450 | 30515 ft | 538 kts | 143° |
| 2026-04-22 01:01 | 36.44709 | -121.08153 | 30831 ft | 539 kts | 143° |
| 2026-04-22 01:01 | 36.42116 | -121.04755 | 31081 ft | 545 kts | 139° |
| 2026-04-22 01:01 | 36.39634 | -121.01176 | 31357 ft | 548 kts | 138° |
| 2026-04-22 01:01 | 36.37169 | -120.97566 | 31670 ft | 549 kts | 138° |
| 2026-04-22 01:02 | 36.34683 | -120.93980 | 32034 ft | 548 kts | 139° |
| 2026-04-22 01:02 | 36.32175 | -120.90420 | 32485 ft | 546 kts | 139° |
| 2026-04-22 01:02 | 36.29687 | -120.86870 | 32973 ft | 544 kts | 139° |
| 2026-04-22 01:02 | 36.27219 | -120.83314 | 33438 ft | 542 kts | 139° |
| 2026-04-22 01:03 | 36.24761 | -120.79780 | 33918 ft | 540 kts | 139° |
| 2026-04-22 01:03 | 36.22305 | -120.76281 | 34354 ft | 537 kts | 139° |
| 2026-04-22 01:03 | 36.19852 | -120.72794 | 34740 ft | 536 kts | 139° |
| 2026-04-22 01:03 | 36.17416 | -120.69318 | 35103 ft | 534 kts | 139° |
| 2026-04-22 01:04 | 36.14995 | -120.65858 | 35460 ft | 533 kts | 138° |
| 2026-04-22 01:04 | 36.12580 | -120.62421 | 35765 ft | 532 kts | 138° |
| 2026-04-22 01:04 | 36.10145 | -120.58966 | 36126 ft | 531 kts | 138° |
| 2026-04-22 01:04 | 36.07719 | -120.55522 | 36414 ft | 530 kts | 138° |
| 2026-04-22 01:05 | 36.05301 | -120.52089 | 36709 ft | 530 kts | 138° |
| 2026-04-22 01:05 | 36.02880 | -120.48656 | 36953 ft | 531 kts | 138° |
| 2026-04-22 01:05 | 36.00447 | -120.45213 | 37075 ft | 532 kts | 138° |
| 2026-04-22 01:05 | 35.98016 | -120.41775 | 37068 ft | 530 kts | 138° |
| 2026-04-22 01:06 | 35.93203 | -120.34970 | 37070 ft | 523 kts | 138° |
| 2026-04-22 01:06 | 35.88407 | -120.28246 | 37073 ft | 519 kts | 140° |
| 2026-04-22 01:07 | 35.85754 | -120.25316 | 37066 ft | 506 kts | 152° |
| 2026-04-22 01:07 | 35.82829 | -120.22978 | 37072 ft | 499 kts | 158° |
| 2026-04-22 01:07 | 35.77893 | -120.19292 | 37078 ft | 500 kts | 157° |
| 2026-04-22 01:08 | 35.71961 | -120.14796 | 37071 ft | 500 kts | 157° |
| 2026-04-22 01:08 | 35.66029 | -120.10347 | 37082 ft | 498 kts | 158° |
| 2026-04-22 01:09 | 35.60124 | -120.05882 | 37073 ft | 498 kts | 157° |
| 2026-04-22 01:09 | 35.54221 | -120.01431 | 37077 ft | 497 kts | 158° |
| 2026-04-22 01:10 | 35.48321 | -119.96997 | 37074 ft | 497 kts | 157° |
| 2026-04-22 01:10 | 35.42423 | -119.92560 | 37067 ft | 496 kts | 157° |
| 2026-04-22 01:11 | 35.36524 | -119.88143 | 37062 ft | 497 kts | 157° |
| 2026-04-22 01:11 | 35.30665 | -119.83754 | 37063 ft | 497 kts | 158° |
| 2026-04-22 01:12 | 35.25001 | -119.78774 | 37074 ft | 504 kts | 151° |
| 2026-04-22 01:12 | 35.19440 | -119.73590 | 36516 ft | 500 kts | 152° |
| 2026-04-22 01:13 | 35.16664 | -119.71010 | 35749 ft | 502 kts | 151° |
| 2026-04-22 01:13 | 35.13891 | -119.68416 | 35023 ft | 502 kts | 151° |
| 2026-04-22 01:13 | 35.11124 | -119.65827 | 34284 ft | 502 kts | 151° |
| 2026-04-22 01:13 | 35.08346 | -119.63242 | 33459 ft | 501 kts | 152° |
| 2026-04-22 01:14 | 35.05569 | -119.60666 | 32652 ft | 500 kts | 151° |
| 2026-04-22 01:14 | 35.02802 | -119.58095 | 31781 ft | 500 kts | 151° |
| 2026-04-22 01:14 | 35.00035 | -119.55521 | 30938 ft | 500 kts | 151° |
| 2026-04-22 01:14 | 34.97270 | -119.52955 | 30052 ft | 500 kts | 152° |
| 2026-04-22 01:15 | 34.94502 | -119.50391 | 29091 ft | 500 kts | 151° |
| 2026-04-22 01:15 | 34.91741 | -119.47833 | 28209 ft | 497 kts | 151° |
| 2026-04-22 01:15 | 34.88999 | -119.45316 | 27595 ft | 488 kts | 152° |
| 2026-04-22 01:15 | 34.86284 | -119.42908 | 27059 ft | 478 kts | 153° |
| 2026-04-22 01:16 | 34.83604 | -119.40554 | 26560 ft | 473 kts | 153° |
| 2026-04-22 01:16 | 34.80962 | -119.38191 | 26041 ft | 468 kts | 152° |
| 2026-04-22 01:16 | 34.78372 | -119.35847 | 25528 ft | 460 kts | 152° |
| 2026-04-22 01:16 | 34.75823 | -119.33563 | 25030 ft | 452 kts | 153° |
| 2026-04-22 01:17 | 34.73293 | -119.31328 | 24537 ft | 444 kts | 153° |
| 2026-04-22 01:17 | 34.70797 | -119.29161 | 24048 ft | 437 kts | 154° |
| 2026-04-22 01:17 | 34.68343 | -119.27034 | 23565 ft | 430 kts | 153° |
| 2026-04-22 01:17 | 34.65930 | -119.24922 | 23012 ft | 424 kts | 153° |
| 2026-04-22 01:18 | 34.63563 | -119.22848 | 22507 ft | 417 kts | 154° |
| 2026-04-22 01:18 | 34.61218 | -119.20830 | 22044 ft | 410 kts | 154° |
| 2026-04-22 01:18 | 34.58896 | -119.18848 | 21580 ft | 406 kts | 154° |
| 2026-04-22 01:18 | 34.56628 | -119.16898 | 21128 ft | 403 kts | 154° |
| 2026-04-22 01:19 | 34.54354 | -119.14911 | 20695 ft | 402 kts | 153° |
| 2026-04-22 01:19 | 34.52113 | -119.12901 | 20335 ft | 399 kts | 153° |
| 2026-04-22 01:19 | 34.49898 | -119.10917 | 20135 ft | 394 kts | 153° |
| 2026-04-22 01:19 | 34.47680 | -119.08965 | 20093 ft | 393 kts | 153° |
| 2026-04-22 01:20 | 34.45452 | -119.07016 | 20110 ft | 398 kts | 153° |
| 2026-04-22 01:20 | 34.43208 | -119.05034 | 20106 ft | 398 kts | 153° |
| 2026-04-22 01:20 | 34.40961 | -119.03072 | 20099 ft | 397 kts | 154° |
| 2026-04-22 01:20 | 34.38711 | -119.01140 | 20103 ft | 397 kts | 154° |
| 2026-04-22 01:21 | 34.36475 | -118.99211 | 19893 ft | 390 kts | 153° |
| 2026-04-22 01:21 | 34.34329 | -118.97336 | 18657 ft | 377 kts | 153° |
| 2026-04-22 01:21 | 34.32252 | -118.95422 | 17313 ft | 371 kts | 152° |
| 2026-04-22 01:21 | 34.30204 | -118.93588 | 16209 ft | 364 kts | 152° |
| 2026-04-22 01:22 | 34.28123 | -118.91743 | 15391 ft | 373 kts | 151° |
| 2026-04-22 01:22 | 34.26049 | -118.89856 | 14762 ft | 371 kts | 150° |
| 2026-04-22 01:22 | 34.24023 | -118.87986 | 14330 ft | 362 kts | 150° |
| 2026-04-22 01:22 | 34.22063 | -118.86169 | 14070 ft | 348 kts | 150° |
| 2026-04-22 01:23 | 34.20256 | -118.84505 | 13952 ft | 331 kts | 150° |
| 2026-04-22 01:23 | 34.18437 | -118.82844 | 13496 ft | 325 kts | 151° |
| 2026-04-22 01:23 | 34.16653 | -118.81214 | 13064 ft | 319 kts | 150° |
| 2026-04-22 01:23 | 34.15011 | -118.79425 | 12659 ft | 316 kts | 144° |
| 2026-04-22 01:24 | 34.13390 | -118.77660 | 12285 ft | 311 kts | 146° |
| 2026-04-22 01:24 | 34.11772 | -118.75934 | 11940 ft | 309 kts | 146° |
| 2026-04-22 01:24 | 34.10199 | -118.74231 | 11604 ft | 308 kts | 145° |
| 2026-04-22 01:24 | 34.08610 | -118.72496 | 11261 ft | 307 kts | 144° |
| 2026-04-22 01:25 | 34.07039 | -118.70782 | 10949 ft | 303 kts | 144° |
| 2026-04-22 01:25 | 34.05464 | -118.69078 | 10603 ft | 304 kts | 144° |
| 2026-04-22 01:25 | 34.03951 | -118.67357 | 10288 ft | 298 kts | 139° |
| 2026-04-22 01:25 | 34.02950 | -118.65151 | 9873 ft | 304 kts | 114° |
| 2026-04-22 01:26 | 34.02601 | -118.62636 | 9506 ft | 301 kts | 98° |
| 2026-04-22 01:26 | 34.02389 | -118.60130 | 9197 ft | 299 kts | 99° |
| 2026-04-22 01:26 | 34.02151 | -118.57653 | 8901 ft | 296 kts | 100° |
| 2026-04-22 01:26 | 34.01911 | -118.55204 | 8593 ft | 292 kts | 99° |
| 2026-04-22 01:27 | 34.01685 | -118.52802 | 8275 ft | 284 kts | 99° |
| 2026-04-22 01:27 | 34.01469 | -118.50472 | 7973 ft | 276 kts | 99° |
| 2026-04-22 01:27 | 34.01255 | -118.48200 | 7674 ft | 270 kts | 99° |
| 2026-04-22 01:27 | 34.01063 | -118.45979 | 7373 ft | 263 kts | 96° |
| 2026-04-22 01:28 | 34.01323 | -118.43816 | 7029 ft | 259 kts | 77° |
| 2026-04-22 01:28 | 34.01718 | -118.41720 | 6773 ft | 253 kts | 79° |
| 2026-04-22 01:28 | 34.02068 | -118.39664 | 6498 ft | 249 kts | 80° |
| 2026-04-22 01:28 | 34.02409 | -118.37633 | 6210 ft | 245 kts | 79° |
| 2026-04-22 01:29 | 34.02736 | -118.35635 | 6020 ft | 241 kts | 82° |
| 2026-04-22 01:29 | 34.02877 | -118.33627 | 5985 ft | 242 kts | 85° |
| 2026-04-22 01:29 | 34.03129 | -118.31608 | 5995 ft | 244 kts | 82° |
| 2026-04-22 01:29 | 34.03365 | -118.29621 | 5991 ft | 238 kts | 84° |
| 2026-04-22 01:30 | 34.03560 | -118.27655 | 5799 ft | 231 kts | 85° |
| 2026-04-22 01:30 | 34.03744 | -118.25753 | 5622 ft | 225 kts | 85° |
| 2026-04-22 01:30 | 34.03931 | -118.23893 | 5379 ft | 223 kts | 84° |
| 2026-04-22 01:30 | 34.04117 | -118.22069 | 5126 ft | 221 kts | 84° |
| 2026-04-22 01:31 | 34.04302 | -118.20231 | 4859 ft | 221 kts | 83° |
| 2026-04-22 01:31 | 34.04482 | -118.18402 | 4597 ft | 219 kts | 85° |
| 2026-04-22 01:31 | 34.04188 | -118.16633 | 4102 ft | 218 kts | 126° |
| 2026-04-22 01:31 | 34.03173 | -118.15353 | 3986 ft | 208 kts | 140° |
| 2026-04-22 01:32 | 34.02102 | -118.14186 | 3750 ft | 208 kts | 142° |
| 2026-04-22 01:32 | 34.00959 | -118.13153 | 3320 ft | 206 kts | 160° |
| 2026-04-22 01:32 | 33.99563 | -118.13162 | 2803 ft | 201 kts | 207° |
| 2026-04-22 01:32 | 33.98540 | -118.14198 | 2661 ft | 187 kts | 231° |
| 2026-04-22 01:33 | 33.97673 | -118.15370 | 2631 ft | 187 kts | 231° |
| 2026-04-22 01:33 | 33.96826 | -118.16539 | 2620 ft | 184 kts | 231° |
| 2026-04-22 01:33 | 33.96018 | -118.17723 | 2620 ft | 182 kts | 237° |
| 2026-04-22 01:33 | 33.95696 | -118.19166 | 2613 ft | 177 kts | 263° |
| 2026-04-22 01:34 | 33.95531 | -118.20673 | 2622 ft | 184 kts | 262° |
| 2026-04-22 01:34 | 33.95371 | -118.22193 | 2613 ft | 182 kts | 263° |
| 2026-04-22 01:34 | 33.95218 | -118.23699 | 2549 ft | 180 kts | 263° |
| 2026-04-22 01:34 | 33.95066 | -118.25185 | 2311 ft | 177 kts | 264° |
| 2026-04-22 01:35 | 33.94920 | -118.26617 | 2082 ft | 171 kts | 264° |
| 2026-04-22 01:35 | 33.94781 | -118.27971 | 1847 ft | 153 kts | 264° |
| 2026-04-22 01:35 | 33.94651 | -118.29230 | 1645 ft | 149 kts | 265° |
| 2026-04-22 01:35 | 33.94536 | -118.30422 | 1456 ft | 142 kts | 264° |
| 2026-04-22 01:36 | 33.94423 | -118.31589 | 1262 ft | 138 kts | 263° |
| 2026-04-22 01:36 | 33.94302 | -118.32704 | 1092 ft | 134 kts | 263° |
| 2026-04-22 01:36 | 33.94186 | -118.33869 | 892 ft | 148 kts | 262° |
| 2026-04-22 01:36 | 33.94060 | -118.35096 | 681 ft | 141 kts | 264° |
| 2026-04-22 01:37 | 33.93955 | -118.36227 | 493 ft | 132 kts | 263° |
| 2026-04-22 01:37 | 33.93836 | -118.37321 | 317 ft | 131 kts | 264° |
| 2026-04-22 01:37 | 33.93729 | -118.38395 | 152 ft | 129 kts | 261° |
| 2026-04-22 01:37 | 33.93624 | -118.39394 | 113 ft | 101 kts | 262° |
| 2026-04-22 01:38 | 33.93563 | -118.39986 | 116 ft | 54 kts | 263° |
| 2026-04-22 01:38 | 33.93535 | -118.40382 | 114 ft | 40 kts | 273° |
| 2026-04-22 01:38 | 33.93588 | -118.40630 | 111 ft | 23 kts | 287° |
| 2026-04-22 01:38 | 33.93595 | -118.40797 | 111 ft | 13 kts | 279° |
| 2026-04-22 01:39 | 33.93598 | -118.40811 | 111 ft | 0 kts | 285° |
| 2026-04-22 01:39 | 33.93599 | -118.40812 | 111 ft | 0 kts | 285° |
| 2026-04-22 01:40 | 33.93605 | -118.40838 | 111 ft | 8 kts | 288° |
| 2026-04-22 01:40 | 33.93657 | -118.40891 | 111 ft | 13 kts | 344° |
| 2026-04-22 01:40 | 33.93749 | -118.40907 | 109 ft | 13 kts | 1° |
| 2026-04-22 01:40 | 33.93791 | -118.40841 | 108 ft | 11 kts | 80° |
| 2026-04-22 01:41 | 33.93805 | -118.40718 | 108 ft | 18 kts | 84° |
| 2026-04-22 01:41 | 33.93822 | -118.40547 | 108 ft | 22 kts | 83° |
| 2026-04-22 01:41 | 33.93842 | -118.40361 | 109 ft | 23 kts | 82° |
| 2026-04-22 01:41 | 33.93862 | -118.40167 | 110 ft | 24 kts | 83° |
| 2026-04-22 01:42 | 33.93882 | -118.39964 | 109 ft | 25 kts | 83° |
| 2026-04-22 01:42 | 33.93901 | -118.39829 | 109 ft | 9 kts | 66° |
| 2026-04-22 01:42 | 33.93951 | -118.39812 | 105 ft | 11 kts | 349° |
| 2026-04-22 01:42 | 33.94037 | -118.39825 | 103 ft | 10 kts | 356° |
| 2026-04-22 01:43 | 33.94075 | -118.39840 | 102 ft | 3 kts | 310° |
| 2026-04-22 01:43 | 33.94089 | -118.39868 | 103 ft | 4 kts | 306° |
| 2026-04-22 01:43 | 33.94101 | -118.39887 | 102 ft | 1 kts | 306° |
| 2026-04-22 01:43 | 33.94104 | -118.39892 | 102 ft | 0 kts | 306° |